Nantucket Memorial Airport
KACK : now visible

Airfield :











YOU CAN JOIN US ON...

 
LOGIN :

Register | Disclaimer

   EN    FR    IT 

 









Legend :    VFR   Marginal VFR   IFR   Intensive IFR   Very Intensive IFR
Visi :
Ceiling :
>= 8 km
>= 3000ft
5 to 8 km
1000 to 3000 ft
1500m to 5 km
500 to 1000 ft
800 to 1500m
200 to 500 ft
< 800m
< 200 ft
Symbols :   Thunderstorms  Fog  Heavy snow  Heavy precipitations  Wind > 20 kt







- Airport Elevation : 47 ft
- IATA code : ACK


KACK - Nantucket Memorial

CURRENT METAR :
  • 192253Z 18013KT 10SM CLR 12/10 A3004 RMK AO2 SLP172 T01220100

EXPIRED METARs :
  • 192153Z 18013KT 10SM CLR 13/10 A3005 RMK AO2 SLP175 T01280100
  • 192053Z 18015KT 10SM CLR 14/10 A3008 RMK AO2 SLP185 T01390100 58017

TAF KACK
Valid from the 19 at 20:00 until the 20 at 18:00 UTC


192025Z 1920/2018 17014G20KT P6SM SCT250
FM200400 19015KT P6SM BKN003
FM200500 20015KT 3SM BR BKN001
FM200700 20014KT 3SM BR OVC001 WS020/23040KT
FM201300 21015KT 1SM BR OVC003 WS020/24040KT
FM201600 21015G25KT 5SM BR OVC003
KZBW FIR / North America



MET'MAP, your aeronautical weather chart ! - Copyright ORBIFLY December 2007 - Disclaimer

ORBIFLY MET'MAP TEAM :

Programming & Development : Alexandra Zaïnal
Concept & Development : Baudouin d'Aumeries
Co-Development & Prog : Marc-Olivier Méhu
Technical & hardware support : Manuel Goepfert

Contact : metmap@orbifly.com




SOURCES & CREDITS :

   NOAA       Earth
Advisory